createdAt,value
2023-02-27T00:00:54.689Z,102238.41
2023-02-27T00:03:22.692Z,102224.09
2023-02-27T00:05:50.651Z,102228.31
2023-02-27T00:08:18.702Z,102223.59
2023-02-27T00:10:47.794Z,102224.75
2023-02-27T00:13:17.187Z,102233.31
2023-02-27T00:15:46.994Z,102227.81
2023-02-27T00:18:14.959Z,102234.78
2023-02-27T00:20:43.080Z,102226.53
2023-02-27T00:23:11.401Z,102230.97
2023-02-27T00:25:39.239Z,102231.66
2023-02-27T00:28:07.001Z,102231.44
2023-02-27T00:30:36.141Z,102232.78
2023-02-27T00:33:04.275Z,102234.53
2023-02-27T00:35:34.371Z,102231.13
2023-02-27T00:38:02.553Z,102228.72
2023-02-27T00:40:30.701Z,102227.19
2023-02-27T00:42:58.897Z,102223.59
2023-02-27T00:45:27.028Z,102228.84
2023-02-27T00:47:56.720Z,102222.91
2023-02-27T00:50:24.559Z,102231.38
2023-02-27T00:52:52.439Z,102220.41
2023-02-27T00:55:20.324Z,102231.41
2023-02-27T00:57:48.652Z,102227.78
2023-02-27T01:00:17.193Z,102234.00
2023-02-27T01:02:45.141Z,102228.22
2023-02-27T01:05:14.929Z,102232.00
2023-02-27T01:07:43.465Z,102234.31
2023-02-27T01:10:15.879Z,102231.59
2023-02-27T01:12:43.715Z,102236.59
2023-02-27T01:15:12.686Z,102223.81
2023-02-27T01:17:40.680Z,102235.56
2023-02-27T01:20:10.779Z,102226.84
2023-02-27T01:22:39.989Z,102226.66
2023-02-27T01:25:09.129Z,102230.06
2023-02-27T01:27:40.856Z,102233.09
2023-02-27T01:30:11.442Z,102229.38
2023-02-27T01:32:39.380Z,102228.06
2023-02-27T01:35:07.988Z,102225.13
2023-02-27T01:37:35.842Z,102216.38
2023-02-27T01:40:08.952Z,102220.44
2023-02-27T01:42:37.111Z,102215.47
2023-02-27T01:45:30.838Z,102220.69
2023-02-27T01:48:06.570Z,102215.47
2023-02-27T01:50:36.138Z,102218.50
2023-02-27T01:53:07.796Z,102211.53
2023-02-27T01:55:40.035Z,102218.88
2023-02-27T01:58:10.942Z,102215.44
2023-02-27T02:00:39.383Z,102225.72
2023-02-27T02:03:17.630Z,102227.41
2023-02-27T02:05:47.307Z,102227.78
2023-02-27T02:08:18.176Z,102226.00
2023-02-27T02:10:49.282Z,102228.00
2023-02-27T02:13:19.812Z,102225.84
2023-02-27T02:15:54.139Z,102222.13
2023-02-27T02:18:32.164Z,102222.34
2023-02-27T02:21:35.705Z,102222.81
2023-02-27T02:24:35.020Z,102219.38
2023-02-27T02:27:19.133Z,102219.56
2023-02-27T02:30:31.116Z,102224.06
2023-02-27T02:33:37.153Z,102223.28
2023-02-27T02:36:49.650Z,102229.38
2023-02-27T02:39:45.023Z,102218.38
2023-02-27T02:42:20.955Z,102217.09
2023-02-27T02:45:02.554Z,102213.44
2023-02-27T02:47:37.438Z,102216.84
2023-02-27T02:50:13.481Z,102214.75
2023-02-27T02:52:53.233Z,102214.06
2023-02-27T02:55:30.278Z,102209.28
2023-02-27T02:58:05.146Z,102208.84
2023-02-27T03:00:36.487Z,102215.22
2023-02-27T03:03:11.436Z,102217.44
2023-02-27T03:05:42.915Z,102213.19
2023-02-27T03:08:15.503Z,102214.47
2023-02-27T03:10:49.076Z,102220.94
2023-02-27T03:13:23.585Z,102216.34
2023-02-27T03:15:59.732Z,102216.50
2023-02-27T03:18:33.520Z,102226.28
2023-02-27T03:21:05.762Z,102224.84
2023-02-27T03:23:37.650Z,102235.06
2023-02-27T03:26:08.080Z,102232.50
2023-02-27T03:28:42.438Z,102234.94
2023-02-27T03:31:18.627Z,102241.88
2023-02-27T03:33:50.665Z,102239.56
2023-02-27T03:36:27.502Z,102249.09
2023-02-27T03:39:01.855Z,102242.69
2023-02-27T03:41:35.257Z,102240.44
2023-02-27T03:44:30.425Z,102250.03
2023-02-27T03:46:59.323Z,102248.03
2023-02-27T03:49:27.564Z,102251.13
2023-02-27T03:51:55.668Z,102247.44
2023-02-27T03:54:28.221Z,102259.22
2023-02-27T03:57:01.723Z,102250.41
2023-02-27T03:59:31.557Z,102250.16
2023-02-27T04:02:01.134Z,102251.19
2023-02-27T04:04:32.869Z,102256.56
2023-02-27T04:07:36.893Z,102257.81
2023-02-27T04:10:27.912Z,102262.38
2023-02-27T04:13:34.572Z,102257.44
2023-02-27T04:16:20.848Z,102259.13
2023-02-27T04:19:04.296Z,102266.41
2023-02-27T04:21:39.901Z,102261.66
2023-02-27T04:24:21.433Z,102269.28
2023-02-27T04:26:54.381Z,102268.00
2023-02-27T04:29:38.651Z,102276.34
2023-02-27T04:32:15.971Z,102270.19
2023-02-27T04:34:49.928Z,102271.97
2023-02-27T04:37:23.669Z,102271.75
2023-02-27T04:39:55.397Z,102271.44
2023-02-27T04:42:27.941Z,102275.00
2023-02-27T04:45:00.571Z,102270.25
2023-02-27T04:47:32.758Z,102272.13
2023-02-27T04:50:04.577Z,102280.75
2023-02-27T04:52:37.872Z,102279.00
2023-02-27T04:55:09.117Z,102282.22
2023-02-27T04:57:42.197Z,102284.00
2023-02-27T05:00:14.787Z,102280.97
2023-02-27T05:02:45.944Z,102293.94
2023-02-27T05:05:17.996Z,102283.25
2023-02-27T05:07:49.917Z,102290.91
2023-02-27T05:10:25.357Z,102282.41
2023-02-27T05:12:58.187Z,102287.69
2023-02-27T05:15:32.500Z,102292.28
2023-02-27T05:18:03.784Z,102293.16
2023-02-27T05:20:38.679Z,102294.16
2023-02-27T05:23:14.382Z,102301.94
2023-02-27T05:25:49.774Z,102294.28
2023-02-27T05:28:22.052Z,102302.56
2023-02-27T05:30:57.385Z,102307.69
2023-02-27T05:33:31.913Z,102308.53
2023-02-27T05:36:04.728Z,102303.63
2023-02-27T05:38:37.988Z,102306.47
2023-02-27T05:41:10.092Z,102298.84
2023-02-27T05:43:42.571Z,102302.38
2023-02-27T05:46:16.723Z,102302.31
2023-02-27T05:48:50.082Z,102297.06
2023-02-27T05:51:19.542Z,102304.72
2023-02-27T05:53:54.174Z,102306.53
2023-02-27T05:56:27.258Z,102298.72
2023-02-27T05:59:01.424Z,102295.31
2023-02-27T06:01:30.884Z,102302.31
2023-02-27T06:03:58.849Z,102310.00
2023-02-27T06:06:27.280Z,102313.59
2023-02-27T06:08:55.290Z,102307.22
2023-02-27T06:11:23.108Z,102320.66
2023-02-27T06:13:51.146Z,102322.38
2023-02-27T06:16:19.377Z,102324.19
2023-02-27T06:18:48.821Z,102331.47
2023-02-27T06:21:16.735Z,102329.38
2023-02-27T06:23:44.765Z,102327.84
2023-02-27T06:26:14.255Z,102340.66
2023-02-27T06:28:42.693Z,102339.00
2023-02-27T06:31:10.822Z,102341.50
2023-02-27T06:33:38.832Z,102343.09
2023-02-27T06:36:10.359Z,102335.47
2023-02-27T06:38:38.261Z,102344.38
2023-02-27T06:41:07.450Z,102344.84
2023-02-27T06:43:37.120Z,102343.16
2023-02-27T06:46:05.371Z,102345.81
2023-02-27T06:48:33.724Z,102353.28
2023-02-27T06:51:01.649Z,102359.88
2023-02-27T06:53:31.055Z,102351.69
2023-02-27T06:56:02.031Z,102352.03
2023-02-27T06:58:29.983Z,102357.31
2023-02-27T07:00:59.847Z,102362.63
2023-02-27T07:03:27.972Z,102361.63
2023-02-27T07:05:58.080Z,102362.66
2023-02-27T07:08:26.484Z,102375.59
2023-02-27T07:10:55.732Z,102368.09
2023-02-27T07:13:23.853Z,102358.31
2023-02-27T07:15:52.283Z,102372.78
2023-02-27T07:18:20.230Z,102376.00
2023-02-27T07:20:51.161Z,102373.31
2023-02-27T07:23:19.285Z,102375.00
2023-02-27T07:25:48.580Z,102378.69
2023-02-27T07:28:20.331Z,102376.00
2023-02-27T07:30:48.767Z,102381.13
2023-02-27T07:33:16.739Z,102387.16
2023-02-27T07:35:46.266Z,102385.25
2023-02-27T07:38:14.392Z,102386.38
2023-02-27T07:40:42.938Z,102382.25
2023-02-27T07:43:10.724Z,102382.19
2023-02-27T07:45:40.032Z,102372.06
2023-02-27T07:48:12.993Z,102375.34
2023-02-27T07:50:47.329Z,102369.78
2023-02-27T07:53:15.277Z,102372.59
2023-02-27T07:55:43.295Z,102378.81
2023-02-27T07:58:11.176Z,102383.38
2023-02-27T08:00:41.015Z,102374.53
2023-02-27T08:03:09.131Z,102380.88
2023-02-27T08:05:37.210Z,102377.72
2023-02-27T08:08:05.481Z,102378.63
2023-02-27T08:10:33.441Z,102378.47
2023-02-27T08:13:01.318Z,102387.34
2023-02-27T08:15:29.491Z,102385.34
2023-02-27T08:17:59.199Z,102388.66
2023-02-27T08:20:27.974Z,102381.75
2023-02-27T08:22:56.252Z,102386.53
2023-02-27T08:25:24.439Z,102390.84
2023-02-27T08:27:52.439Z,102394.41
2023-02-27T08:30:20.592Z,102397.66
2023-02-27T08:32:48.722Z,102401.25
2023-02-27T08:35:18.081Z,102404.00
2023-02-27T08:37:46.335Z,102403.22
2023-02-27T08:40:14.327Z,102417.09
2023-02-27T08:42:42.483Z,102413.63
2023-02-27T08:45:11.772Z,102403.09
2023-02-27T08:47:39.889Z,102413.22
2023-02-27T08:50:08.737Z,102409.16
2023-02-27T08:52:38.046Z,102412.88
2023-02-27T08:55:06.679Z,102398.34
2023-02-27T08:57:34.658Z,102402.34
2023-02-27T09:00:04.908Z,102407.34
2023-02-27T09:02:33.170Z,102399.53
2023-02-27T09:05:01.372Z,102399.09
2023-02-27T09:07:29.664Z,102405.28
2023-02-27T09:09:59.046Z,102405.19
2023-02-27T09:12:27.495Z,102404.22
2023-02-27T09:14:55.351Z,102415.53
2023-02-27T09:17:23.354Z,102416.91
2023-02-27T09:19:51.873Z,102416.59
2023-02-27T09:22:19.945Z,102412.66
2023-02-27T09:24:48.117Z,102414.50
2023-02-27T09:27:17.681Z,102414.19
2023-02-27T09:29:45.536Z,102412.84
2023-02-27T09:32:13.627Z,102422.34
2023-02-27T09:34:41.556Z,102419.53
2023-02-27T09:37:09.392Z,102424.00
2023-02-27T09:39:37.304Z,102413.16
2023-02-27T09:42:09.743Z,102407.94
2023-02-27T09:44:47.397Z,102406.34
2023-02-27T09:47:25.936Z,102403.03
2023-02-27T09:50:00.690Z,102413.31
2023-02-27T09:52:29.780Z,102409.97
2023-02-27T09:54:57.846Z,102416.31
2023-02-27T09:57:45.360Z,102410.63
2023-02-27T10:00:30.420Z,102404.28
2023-02-27T10:03:08.018Z,102404.81
2023-02-27T10:05:43.778Z,102405.03
2023-02-27T10:08:18.558Z,102407.59
2023-02-27T10:10:55.013Z,102409.22
2023-02-27T10:13:37.748Z,102404.13
2023-02-27T10:16:09.748Z,102401.72
2023-02-27T10:18:48.302Z,102395.25
2023-02-27T10:21:22.553Z,102405.47
2023-02-27T10:23:56.481Z,102393.41
2023-02-27T10:26:27.536Z,102394.38
2023-02-27T10:28:55.604Z,102407.03
2023-02-27T10:31:30.251Z,102409.56
2023-02-27T10:33:59.227Z,102409.50
2023-02-27T10:36:33.976Z,102421.31
2023-02-27T10:39:07.766Z,102419.97
2023-02-27T10:41:37.488Z,102417.31
2023-02-27T10:44:06.068Z,102416.53
2023-02-27T10:46:38.142Z,102419.06
2023-02-27T10:49:17.574Z,102407.69
2023-02-27T10:51:47.558Z,102410.25
2023-02-27T10:54:21.570Z,102408.44
2023-02-27T10:56:52.286Z,102410.16
2023-02-27T10:59:23.548Z,102408.53
2023-02-27T11:01:55.069Z,102406.41
2023-02-27T11:04:33.244Z,102415.78
2023-02-27T11:07:04.070Z,102406.72
2023-02-27T11:09:34.405Z,102404.47
2023-02-27T11:12:13.208Z,102410.88
2023-02-27T11:14:50.869Z,102411.19
2023-02-27T11:17:29.638Z,102408.78
2023-02-27T11:19:59.673Z,102399.03
2023-02-27T11:22:30.223Z,102392.38
2023-02-27T11:25:21.628Z,102398.19
2023-02-27T11:27:52.079Z,102381.19
2023-02-27T11:30:28.364Z,102395.28
2023-02-27T11:33:00.251Z,102386.47
2023-02-27T11:35:31.149Z,102378.84
2023-02-27T11:38:02.465Z,102378.25
2023-02-27T11:40:33.071Z,102392.38
2023-02-27T11:43:05.873Z,102388.13
2023-02-27T11:46:11.942Z,102384.44
2023-02-27T11:48:29.662Z,102375.31
2023-02-27T11:51:25.112Z,102377.81
2023-02-27T11:54:16.168Z,102376.34
2023-02-27T11:56:47.332Z,102385.41
2023-02-27T11:59:29.583Z,102385.22
2023-02-27T12:02:04.347Z,102392.72
2023-02-27T12:04:45.651Z,102388.53
2023-02-27T12:07:19.602Z,102386.25
2023-02-27T12:09:54.680Z,102383.63
2023-02-27T12:12:26.066Z,102390.31
2023-02-27T12:15:01.895Z,102382.53
2023-02-27T12:17:36.074Z,102387.09
2023-02-27T12:20:22.474Z,102382.13
2023-02-27T12:22:53.838Z,102378.97
2023-02-27T12:25:31.572Z,102378.25
2023-02-27T12:28:08.262Z,102384.06
2023-02-27T12:30:43.752Z,102366.00
2023-02-27T12:33:21.846Z,102378.25
2023-02-27T12:38:25.564Z,102371.59
2023-02-27T12:41:08.532Z,102384.22
2023-02-27T12:43:45.328Z,102392.22
2023-02-27T12:46:32.954Z,102384.78
2023-02-27T12:49:16.249Z,102387.47
2023-02-27T12:51:53.849Z,102382.81
2023-02-27T12:54:34.925Z,102380.47
2023-02-27T12:57:17.949Z,102374.13
2023-02-27T12:59:59.036Z,102370.13
2023-02-27T13:02:46.812Z,102369.28
2023-02-27T13:05:33.801Z,102370.09
2023-02-27T13:08:10.891Z,102369.44
2023-02-27T13:10:45.865Z,102362.50
2023-02-27T13:13:21.853Z,102368.56
2023-02-27T13:15:55.528Z,102371.34
2023-02-27T13:18:41.213Z,102363.38
2023-02-27T13:21:13.718Z,102365.13
2023-02-27T13:23:58.299Z,102372.75
2023-02-27T13:26:29.904Z,102376.19
2023-02-27T13:28:59.116Z,102372.94
2023-02-27T13:31:35.375Z,102373.34
2023-02-27T13:34:15.618Z,102371.81
2023-02-27T13:36:46.356Z,102365.94
2023-02-27T13:39:42.436Z,102358.97
2023-02-27T13:42:43.490Z,102357.97
2023-02-27T13:45:59.293Z,102359.84
2023-02-27T13:48:47.054Z,102347.97
2023-02-27T13:51:45.017Z,102346.16
2023-02-27T13:54:26.251Z,102347.16
2023-02-27T13:57:24.221Z,102361.50
2023-02-27T14:00:01.708Z,102344.28
2023-02-27T14:02:58.150Z,102352.38
2023-02-27T14:05:35.815Z,102362.22
2023-02-27T14:08:14.842Z,102355.13
2023-02-27T14:10:54.787Z,102364.22
2023-02-27T14:14:03.204Z,102369.44
2023-02-27T14:16:57.449Z,102369.44
2023-02-27T14:19:59.480Z,102365.19
2023-02-27T14:22:56.109Z,102364.28
2023-02-27T14:25:34.209Z,102369.59
2023-02-27T14:28:03.411Z,102373.03
2023-02-27T14:30:36.817Z,102364.25
2023-02-27T14:33:16.696Z,102369.59
2023-02-27T14:35:48.079Z,102370.25
2023-02-27T14:38:20.383Z,102371.28
2023-02-27T14:41:03.819Z,102366.06
2023-02-27T14:43:40.626Z,102368.59
2023-02-27T14:46:17.062Z,102369.47
2023-02-27T14:48:44.967Z,102368.72
2023-02-27T14:51:12.773Z,102369.59
2023-02-27T14:53:40.892Z,102372.81
2023-02-27T14:56:20.099Z,102372.94
2023-02-27T14:59:03.460Z,102376.56
2023-02-27T15:01:37.491Z,102377.16
2023-02-27T15:04:06.193Z,102380.06
2023-02-27T15:06:40.352Z,102380.34
2023-02-27T15:09:08.603Z,102384.28
2023-02-27T15:11:44.801Z,102379.75
2023-02-27T15:14:22.050Z,102376.53
2023-02-27T15:16:55.799Z,102367.78
2023-02-27T15:19:25.673Z,102383.59
2023-02-27T15:21:59.765Z,102381.63
2023-02-27T15:24:33.138Z,102383.41
2023-02-27T15:27:05.934Z,102390.66
2023-02-27T15:29:37.692Z,102382.84
2023-02-27T15:32:08.426Z,102382.81
2023-02-27T15:34:36.987Z,102387.22
2023-02-27T15:37:07.828Z,102385.50
2023-02-27T15:39:37.004Z,102385.44
2023-02-27T15:42:07.127Z,102384.56
2023-02-27T15:44:39.909Z,102377.44
2023-02-27T15:47:11.940Z,102384.88
2023-02-27T15:49:40.195Z,102392.13
2023-02-27T15:52:17.713Z,102390.81
2023-02-27T15:54:51.798Z,102389.56
2023-02-27T15:57:21.933Z,102400.66
2023-02-27T15:59:51.497Z,102389.00
2023-02-27T16:02:25.077Z,102393.47
2023-02-27T16:04:53.226Z,102396.56
2023-02-27T16:07:24.633Z,102397.88
2023-02-27T16:09:55.534Z,102401.19
2023-02-27T16:12:30.505Z,102400.47
2023-02-27T16:15:21.409Z,102403.09
2023-02-27T16:17:58.603Z,102410.25
2023-02-27T16:20:33.395Z,102415.38
2023-02-27T16:23:05.593Z,102412.78
2023-02-27T16:25:33.574Z,102406.69
2023-02-27T16:28:01.580Z,102418.72
2023-02-27T16:30:29.523Z,102416.31
2023-02-27T16:33:01.876Z,102418.66
2023-02-27T16:35:30.355Z,102427.19
2023-02-27T16:38:03.463Z,102425.81
2023-02-27T16:40:31.492Z,102424.88
2023-02-27T16:43:01.709Z,102431.06
2023-02-27T16:45:33.858Z,102429.69
2023-02-27T16:48:03.643Z,102428.78
2023-02-27T16:50:36.054Z,102434.94
2023-02-27T16:53:04.088Z,102432.47
2023-02-27T16:55:33.742Z,102435.38
2023-02-27T16:58:01.815Z,102441.28
2023-02-27T17:00:29.755Z,102439.69
2023-02-27T17:02:58.177Z,102439.66
2023-02-27T17:05:31.127Z,102437.03
2023-02-27T17:07:59.299Z,102443.28
2023-02-27T17:10:28.565Z,102441.28
2023-02-27T17:12:56.644Z,102449.41
2023-02-27T17:15:27.578Z,102449.22
2023-02-27T17:17:55.599Z,102441.72
2023-02-27T17:20:24.544Z,102455.81
2023-02-27T17:22:54.276Z,102444.47
2023-02-27T17:25:29.126Z,102450.47
2023-02-27T17:27:58.950Z,102453.75
2023-02-27T17:31:03.646Z,102454.78
2023-02-27T17:33:32.302Z,102453.19
2023-02-27T17:36:03.511Z,102453.31
2023-02-27T17:38:32.902Z,102452.03
2023-02-27T17:41:00.805Z,102455.75
2023-02-27T17:43:28.656Z,102464.97
2023-02-27T17:45:57.733Z,102467.84
2023-02-27T17:48:31.900Z,102466.09
2023-02-27T17:51:05.183Z,102471.53
2023-02-27T17:53:35.627Z,102468.13
2023-02-27T17:56:03.880Z,102468.00
2023-02-27T17:58:31.867Z,102463.44
2023-02-27T18:01:05.839Z,102469.84
2023-02-27T18:03:33.696Z,102472.69
2023-02-27T18:06:02.069Z,102461.84
2023-02-27T18:08:31.432Z,102466.25
2023-02-27T18:11:01.232Z,102465.50
2023-02-27T18:13:29.790Z,102456.53
2023-02-27T18:15:59.135Z,102458.06
2023-02-27T18:18:26.950Z,102466.34
2023-02-27T18:21:03.085Z,102457.38
2023-02-27T18:23:37.058Z,102457.66
2023-02-27T18:26:17.157Z,102461.91
2023-02-27T18:29:02.317Z,102463.16
2023-02-27T18:31:32.517Z,102464.72
2023-02-27T18:34:00.710Z,102463.19
2023-02-27T18:36:29.386Z,102467.84
2023-02-27T18:38:57.752Z,102467.88
2023-02-27T18:41:27.690Z,102472.34
2023-02-27T18:43:59.601Z,102475.88
2023-02-27T18:46:28.475Z,102471.91
2023-02-27T18:48:56.952Z,102472.09
2023-02-27T18:51:25.222Z,102471.88
2023-02-27T18:54:15.957Z,102478.44
2023-02-27T18:56:45.546Z,102470.59
2023-02-27T18:59:15.681Z,102465.53
2023-02-27T19:01:45.959Z,102465.84
2023-02-27T19:04:13.866Z,102470.28
2023-02-27T19:06:43.073Z,102465.09
2023-02-27T19:09:12.929Z,102467.59
2023-02-27T19:11:40.854Z,102470.22
2023-02-27T19:14:12.988Z,102475.47
2023-02-27T19:16:41.089Z,102470.03
2023-02-27T19:19:09.873Z,102476.19
2023-02-27T19:21:38.108Z,102471.47
2023-02-27T19:24:06.904Z,102474.59
2023-02-27T19:26:35.036Z,102473.72
2023-02-27T19:29:03.504Z,102474.72
2023-02-27T19:31:32.878Z,102473.81
2023-02-27T19:34:01.002Z,102474.59
2023-02-27T19:36:30.605Z,102473.56
2023-02-27T19:38:59.928Z,102478.59
2023-02-27T19:41:28.820Z,102487.16
2023-02-27T19:43:57.620Z,102476.44
2023-02-27T19:46:28.243Z,102470.47
2023-02-27T19:49:01.482Z,102474.28
2023-02-27T19:51:29.867Z,102471.56
2023-02-27T19:53:57.751Z,102475.34
2023-02-27T19:56:27.683Z,102473.44
2023-02-27T19:58:56.151Z,102473.75
2023-02-27T20:01:26.367Z,102478.00
2023-02-27T20:03:55.823Z,102474.25
2023-02-27T20:06:28.822Z,102478.13
2023-02-27T20:08:58.050Z,102467.84
2023-02-27T20:11:30.687Z,102467.88
2023-02-27T20:13:58.903Z,102465.06
2023-02-27T20:16:28.201Z,102467.63
2023-02-27T20:18:56.596Z,102470.16
2023-02-27T20:21:26.821Z,102478.22
2023-02-27T20:23:55.879Z,102483.50
2023-02-27T20:26:26.434Z,102485.16
2023-02-27T20:28:57.200Z,102481.94
2023-02-27T20:31:28.456Z,102479.94
2023-02-27T20:33:57.572Z,102491.34
2023-02-27T20:36:26.970Z,102482.88
2023-02-27T20:38:55.305Z,102492.56
2023-02-27T20:41:27.613Z,102486.13
2023-02-27T20:43:57.852Z,102492.06
2023-02-27T20:46:28.655Z,102499.00
2023-02-27T20:48:57.657Z,102490.09
2023-02-27T20:51:29.573Z,102496.91
2023-02-27T20:54:00.822Z,102489.88
2023-02-27T20:56:30.716Z,102490.22
2023-02-27T20:58:59.824Z,102487.22
2023-02-27T21:01:28.214Z,102492.56
2023-02-27T21:03:58.663Z,102487.13
2023-02-27T21:06:28.529Z,102498.81
2023-02-27T21:08:57.592Z,102504.41
2023-02-27T21:11:29.042Z,102500.84
2023-02-27T21:13:57.988Z,102505.66
2023-02-27T21:16:26.488Z,102497.47
2023-02-27T21:18:56.698Z,102501.69
2023-02-27T21:21:29.037Z,102500.53
2023-02-27T21:23:58.058Z,102504.81
2023-02-27T21:26:28.382Z,102503.09
2023-02-27T21:28:58.279Z,102491.59
2023-02-27T21:31:29.213Z,102503.69
2023-02-27T21:33:59.008Z,102494.13
2023-02-27T21:36:29.701Z,102507.56
2023-02-27T21:38:58.979Z,102509.97
2023-02-27T21:41:27.213Z,102510.41
2023-02-27T21:43:58.805Z,102516.16
2023-02-27T21:46:27.150Z,102512.34
2023-02-27T21:48:58.240Z,102512.13
2023-02-27T21:51:39.454Z,102508.28
2023-02-27T21:54:10.608Z,102519.84
2023-02-27T21:56:39.404Z,102514.06
2023-02-27T21:59:07.557Z,102521.63
2023-02-27T22:01:39.358Z,102517.72
2023-02-27T22:04:08.314Z,102517.50
2023-02-27T22:06:37.792Z,102513.47
2023-02-27T22:09:07.570Z,102521.69
2023-02-27T22:11:35.905Z,102519.59
2023-02-27T22:14:04.442Z,102517.81
2023-02-27T22:16:32.270Z,102514.88
2023-02-27T22:19:00.183Z,102524.94
2023-02-27T22:21:28.867Z,102528.69
2023-02-27T22:23:58.896Z,102529.53
2023-02-27T22:26:29.154Z,102539.59
2023-02-27T22:28:58.192Z,102534.00
2023-02-27T22:31:29.347Z,102538.19
2023-02-27T22:34:01.086Z,102529.69
2023-02-27T22:36:31.567Z,102541.22
2023-02-27T22:39:01.618Z,102541.47
2023-02-27T22:41:31.979Z,102540.22
2023-02-27T22:44:01.865Z,102538.38
2023-02-27T22:46:31.272Z,102538.44
2023-02-27T22:49:01.787Z,102542.09
2023-02-27T22:51:30.583Z,102547.03
2023-02-27T22:54:03.097Z,102549.50
2023-02-27T22:56:31.842Z,102545.25
2023-02-27T22:58:59.964Z,102533.38
2023-02-27T23:01:30.183Z,102536.72
2023-02-27T23:04:00.129Z,102545.81
2023-02-27T23:06:30.812Z,102535.47
2023-02-27T23:08:59.346Z,102540.84
2023-02-27T23:11:29.077Z,102542.72
2023-02-27T23:13:57.253Z,102546.91
2023-02-27T23:16:25.780Z,102548.41
2023-02-27T23:18:55.868Z,102540.44
2023-02-27T23:21:25.565Z,102543.91
2023-02-27T23:23:54.407Z,102559.16
2023-02-27T23:26:22.902Z,102549.50
2023-02-27T23:28:52.060Z,102555.47
2023-02-27T23:31:19.882Z,102556.38
2023-02-27T23:33:47.643Z,102552.28
2023-02-27T23:36:15.574Z,102555.25
2023-02-27T23:38:46.405Z,102563.75
2023-02-27T23:41:16.688Z,102571.22
2023-02-27T23:44:02.960Z,102566.53
2023-02-27T23:46:32.234Z,102564.19
2023-02-27T23:49:00.771Z,102564.34
2023-02-27T23:51:30.461Z,102563.88
2023-02-27T23:53:59.120Z,102572.00
2023-02-27T23:56:28.581Z,102565.94
2023-02-27T23:58:58.044Z,102567.09
